Time;durP1;ratioP1;P1;durP2;ratioP2;P2;SDS_P1;SDS_P2;PMS_P1;PMS_P2;Temp;Humidity;BMP_temperature;BMP_pressure;BME280_temperature;BME280_humidity;BME280_pressure;Samples;Min_cycle;Max_cycle;Signal;HPM_P1;HPM_P2
2022/06/19 00:02:22;;;;;;;3.10;0.50;;;18.20;60.80;;;;;;5092039;28;20044;-76
2022/06/19 00:04:52;;;;;;;4.65;0.60;;;18.20;60.80;;;;;;5074662;28;20040;-78
2022/06/19 00:07:20;;;;;;;4.70;0.50;;;18.10;60.70;;;;;;5094461;28;20052;-77
2022/06/19 00:09:48;;;;;;;6.22;0.80;;;18.20;60.80;;;;;;5094646;28;20036;-77
2022/06/19 00:12:17;;;;;;;4.32;0.80;;;18.10;60.70;;;;;;5095566;28;20094;-77
2022/06/19 00:14:45;;;;;;;4.00;0.63;;;18.10;60.70;;;;;;5083174;28;20415;-77
2022/06/19 00:17:14;;;;;;;3.85;0.52;;;18.10;60.60;;;;;;5074868;28;20077;-77
2022/06/19 00:19:42;;;;;;;2.30;0.65;;;18.10;60.50;;;;;;5085370;28;20102;-80
2022/06/19 00:22:09;;;;;;;4.03;0.50;;;18.10;61.00;;;;;;5071301;28;20048;-81
2022/06/19 00:24:36;;;;;;;2.47;0.50;;;18.10;60.40;;;;;;5061089;28;20063;-81
2022/06/19 00:27:04;;;;;;;3.03;0.70;;;18.10;60.40;;;;;;5074379;28;20044;-81
2022/06/19 00:29:32;;;;;;;3.63;0.70;;;18.00;60.40;;;;;;5077620;28;20093;-80
2022/06/19 00:31:59;;;;;;;2.33;0.50;;;18.00;60.50;;;;;;5094433;28;20048;-81
2022/06/19 00:34:26;;;;;;;4.22;0.40;;;18.00;60.60;;;;;;5077682;28;20066;-81
2022/06/19 00:36:53;;;;;;;5.03;0.68;;;17.90;60.60;;;;;;5061206;28;20063;-78
2022/06/19 00:39:20;;;;;;;5.10;0.50;;;17.90;60.70;;;;;;5060883;28;20139;-79
2022/06/19 00:41:48;;;;;;;3.63;0.65;;;17.80;60.80;;;;;;5088871;28;20458;-78
2022/06/19 00:44:16;;;;;;;3.47;0.93;;;17.80;60.80;;;;;;5085708;28;20040;-78
2022/06/19 00:47:00;;;;;;;5.43;0.63;;;17.80;60.90;;;;;;5077799;28;20453;-78
2022/06/19 00:49:31;;;;;;;3.25;0.50;;;17.80;60.90;;;;;;5077371;28;20403;-78
2022/06/19 00:52:10;;;;;;;2.65;0.50;;;17.70;61.00;;;;;;5093926;28;20132;-78
2022/06/19 00:54:44;;;;;;;4.03;0.55;;;17.70;61.00;;;;;;5094366;28;20105;-79
2022/06/19 00:57:14;;;;;;;3.58;1.08;;;17.70;61.00;;;;;;5093864;28;20048;-78
2022/06/19 00:59:46;;;;;;;3.53;0.47;;;17.60;61.00;;;;;;5057193;28;20052;-79
2022/06/19 01:02:14;;;;;;;;;;;17.50;61.20;;;;;;5077009;28;20503;-78
2022/06/19 01:04:49;;;;;;;3.03;0.32;;;17.50;61.30;;;;;;5077010;28;19981;-79
2022/06/19 01:07:17;;;;;;;3.20;0.35;;;17.50;61.30;;;;;;5076876;28;20044;-78
2022/06/19 01:09:45;;;;;;;3.40;0.70;;;17.50;61.30;;;;;;5077055;28;20036;-78
2022/06/19 01:12:12;;;;;;;8.13;0.50;;;17.50;61.30;;;;;;5060480;28;20052;-78
2022/06/19 01:14:43;;;;;;;3.05;0.32;;;17.50;61.20;;;;;;5093770;28;20044;-79
2022/06/19 01:17:12;;;;;;;3.72;0.50;;;17.50;61.30;;;;;;5093298;28;20044;-78
2022/06/19 01:19:41;;;;;;;4.00;0.98;;;17.50;61.30;;;;;;5093597;28;20072;-78
2022/06/19 01:22:29;;;;;;;2.67;0.40;;;17.40;61.20;;;;;;5091693;28;20044;-78
2022/06/19 01:25:13;;;;;;;4.80;0.63;;;17.40;61.20;;;;;;5092907;28;20560;-78
2022/06/19 01:30:38;;;;;;;5.53;0.47;;;17.30;61.30;;;;;;5080527;28;20044;-78
2022/06/19 01:33:09;;;;;;;5.28;0.60;;;17.30;61.20;;;;;;5089146;28;20086;-78
2022/06/19 01:35:38;;;;;;;5.90;1.07;;;17.30;60.90;;;;;;5093093;28;20510;-78
2022/06/19 01:38:16;;;;;;;5.00;0.95;;;17.30;60.70;;;;;;5076212;28;20144;-78
2022/06/19 01:40:46;;;;;;;4.10;0.60;;;17.20;60.70;;;;;;5082404;28;20197;-77
2022/06/19 01:43:14;;;;;;;3.15;0.63;;;17.10;60.70;;;;;;5090176;28;20044;-78
2022/06/19 01:45:45;;;;;;;7.00;0.77;;;17.10;60.50;;;;;;5072850;28;20485;-78
2022/06/19 01:48:13;;;;;;;3.28;0.40;;;17.10;60.30;;;;;;5074853;28;20484;-77
2022/06/19 01:50:41;;;;;;;3.53;0.55;;;17.10;60.10;;;;;;5092993;28;20148;-82
2022/06/19 01:53:18;;;;;;;4.60;0.60;;;17.10;59.90;;;;;;5092713;28;20462;-83
2022/06/19 01:55:46;;;;;;;4.90;0.45;;;17.00;59.60;;;;;;5092660;28;20461;-82
2022/06/19 01:58:14;;;;;;;5.28;0.40;;;17.00;59.60;;;;;;5076358;28;20067;-82
2022/06/19 02:00:43;;;;;;;5.00;0.60;;;17.00;59.50;;;;;;5075656;28;20074;-81
2022/06/19 02:03:21;;;;;;;5.80;0.50;;;17.00;59.10;;;;;;5075743;28;20051;-82
2022/06/19 02:05:48;;;;;;;4.50;0.60;;;17.00;59.50;;;;;;5075875;28;20488;-81
2022/06/19 02:08:16;;;;;;;3.88;0.32;;;17.00;58.80;;;;;;5072074;28;20047;-82
2022/06/19 02:10:45;;;;;;;3.30;0.32;;;16.90;58.60;;;;;;5070146;28;20040;-82
2022/06/19 02:13:15;;;;;;;3.17;0.30;;;16.90;58.40;;;;;;5067508;28;20051;-82
2022/06/19 02:15:45;;;;;;;3.45;0.50;;;17.00;58.30;;;;;;5074066;28;20131;-81
2022/06/19 02:18:25;;;;;;;3.72;0.88;;;16.90;58.10;;;;;;5093592;28;20044;-82
2022/06/19 02:20:53;;;;;;;1.85;0.45;;;17.00;57.90;;;;;;5074554;28;20460;-82
2022/06/19 02:23:36;;;;;;;2.78;0.30;;;17.00;57.70;;;;;;5075325;28;20563;-82
2022/06/19 02:26:09;;;;;;;4.28;0.50;;;17.00;57.30;;;;;;5092086;28;20723;-81
2022/06/19 02:28:43;;;;;;;3.85;0.45;;;16.90;57.20;;;;;;5091636;28;20093;-81
2022/06/19 02:31:11;;;;;;;3.35;0.60;;;16.90;57.10;;;;;;5092060;28;20044;-81
2022/06/19 02:33:47;;;;;;;3.13;0.45;;;16.90;57.00;;;;;;5093288;28;20046;-82
2022/06/19 02:36:42;;;;;;;3.08;0.30;;;16.80;57.00;;;;;;5091995;28;20225;-82
2022/06/19 02:39:28;;;;;;;3.78;0.30;;;16.90;57.10;;;;;;5092118;28;20047;-82
2022/06/19 02:42:22;;;;;;;4.22;0.70;;;16.80;57.30;;;;;;5058201;28;20113;-81
2022/06/19 02:44:52;;;;;;;2.03;0.30;;;16.80;57.50;;;;;;5069677;28;20059;-82
2022/06/19 02:47:24;;;;;;;5.15;0.85;;;16.80;57.70;;;;;;5093102;28;20044;-82
2022/06/19 02:49:51;;;;;;;5.80;0.47;;;16.70;58.00;;;;;;5091701;28;20051;-81
2022/06/19 02:52:20;;;;;;;3.60;0.70;;;16.70;58.10;;;;;;5074843;28;20135;-81
2022/06/19 02:54:47;;;;;;;2.88;0.35;;;16.80;58.20;;;;;;5091968;28;20039;-82
2022/06/19 02:57:16;;;;;;;4.38;0.63;;;16.70;58.20;;;;;;5093033;28;20377;-82
2022/06/19 02:59:44;;;;;;;5.22;1.05;;;16.70;58.30;;;;;;5091799;28;20044;-82
2022/06/19 03:02:14;;;;;;;3.63;0.50;;;16.70;58.30;;;;;;5091526;28;20152;-82
2022/06/19 03:04:54;;;;;;;3.35;0.30;;;16.80;58.40;;;;;;5091553;28;20067;-82
2022/06/19 03:07:21;;;;;;;3.08;0.28;;;16.70;58.30;;;;;;5091479;28;20055;-81
2022/06/19 03:09:48;;;;;;;3.17;0.40;;;16.70;58.40;;;;;;5071519;28;20409;-81
2022/06/19 03:12:15;;;;;;;4.43;0.50;;;16.70;58.50;;;;;;5054952;28;20041;-81
2022/06/19 03:14:44;;;;;;;6.90;0.50;;;16.70;58.60;;;;;;5064433;28;20071;-81
2022/06/19 03:17:14;;;;;;;2.58;0.30;;;16.70;58.60;;;;;;5089367;28;20051;-82
2022/06/19 03:19:42;;;;;;;5.00;0.40;;;16.70;58.70;;;;;;5091334;28;20064;-81
2022/06/19 03:22:10;;;;;;;2.83;0.50;;;16.60;58.70;;;;;;5074677;28;20452;-81
2022/06/19 03:24:39;;;;;;;3.53;0.50;;;16.60;58.70;;;;;;5091354;28;20411;-83
2022/06/19 03:27:11;;;;;;;1.83;0.43;;;16.60;58.80;;;;;;5074100;28;20056;-82
2022/06/19 03:29:38;;;;;;;2.33;0.30;;;16.70;58.80;;;;;;5090984;28;20621;-82
2022/06/19 03:32:06;;;;;;;4.85;0.40;;;16.60;58.60;;;;;;5054327;28;20082;-81
2022/06/19 03:34:33;;;;;;;1.38;0.20;;;16.60;58.50;;;;;;5073168;28;20077;-81
2022/06/19 03:37:00;;;;;;;2.63;0.30;;;16.60;58.50;;;;;;5071424;28;20040;-82
2022/06/19 03:39:27;;;;;;;4.60;0.50;;;16.50;58.50;;;;;;5068652;28;20047;-82
2022/06/19 03:41:54;;;;;;;2.33;0.38;;;16.50;58.60;;;;;;5095198;28;20130;-81
2022/06/19 03:44:21;;;;;;;1.52;0.30;;;16.50;58.60;;;;;;5058777;28;20127;-82
2022/06/19 03:46:48;;;;;;;3.30;0.32;;;16.50;58.60;;;;;;5095308;28;20123;-81
2022/06/19 03:49:15;;;;;;;1.67;0.30;;;16.40;58.70;;;;;;5078515;28;20502;-82
2022/06/19 03:51:42;;;;;;;2.30;0.30;;;16.40;58.90;;;;;;5095112;28;20048;-81
2022/06/19 03:54:10;;;;;;;3.70;0.32;;;16.40;59.20;;;;;;5095053;28;20140;-81
2022/06/19 03:56:38;;;;;;;1.80;0.30;;;16.40;59.40;;;;;;5078598;28;20496;-83
2022/06/19 03:59:12;;;;;;;3.75;0.30;;;16.40;59.80;;;;;;5096397;28;20496;-82
2022/06/19 04:01:42;;;;;;;2.92;0.50;;;16.40;59.90;;;;;;5078209;28;20044;-82
2022/06/19 04:04:11;;;;;;;4.95;1.00;;;16.40;61.00;;;;;;5096158;28;20089;-77
2022/06/19 04:06:41;;;;;;;5.80;0.60;;;16.40;60.70;;;;;;5095060;28;20056;-78
2022/06/19 04:09:13;;;;;;;2.85;0.47;;;16.30;60.80;;;;;;5084238;28;20446;-77
2022/06/19 04:11:41;;;;;;;5.88;0.60;;;16.30;60.70;;;;;;5094847;28;20076;-78
2022/06/19 04:14:10;;;;;;;5.13;0.60;;;16.30;60.80;;;;;;5080553;28;20064;-78
2022/06/19 04:16:37;;;;;;;3.70;0.40;;;16.40;60.90;;;;;;5094870;28;20090;-78
2022/06/19 04:19:06;;;;;;;3.60;0.45;;;16.40;61.00;;;;;;5074542;28;20400;-77
2022/06/19 04:21:35;;;;;;;2.50;0.30;;;16.40;61.30;;;;;;5077770;28;20056;-78
2022/06/19 04:24:04;;;;;;;7.53;0.77;;;16.40;61.20;;;;;;5094544;28;20117;-79
2022/06/19 04:26:35;;;;;;;2.30;0.30;;;16.40;61.40;;;;;;5078109;28;20115;-78
2022/06/19 04:29:04;;;;;;;2.00;0.55;;;16.40;61.30;;;;;;5094644;28;20074;-83
2022/06/19 04:31:31;;;;;;;4.82;0.30;;;16.50;61.30;;;;;;5093905;28;20144;-83
2022/06/19 04:33:59;;;;;;;4.07;0.28;;;16.50;61.30;;;;;;5093796;28;20138;-82
2022/06/19 04:36:28;;;;;;;2.70;0.30;;;16.50;61.40;;;;;;5060594;28;20075;-82
2022/06/19 04:38:56;;;;;;;3.38;0.43;;;16.50;61.50;;;;;;5095716;28;20036;-82
2022/06/19 04:41:29;;;;;;;6.35;0.60;;;16.50;61.60;;;;;;5094195;28;20121;-82
2022/06/19 04:43:57;;;;;;;2.85;0.20;;;16.50;61.50;;;;;;5094069;28;20044;-82
2022/06/19 04:46:26;;;;;;;4.95;0.40;;;16.50;61.40;;;;;;5075358;28;20048;-82
2022/06/19 04:48:53;;;;;;;2.47;0.50;;;16.50;61.20;;;;;;5094101;28;20049;-82
2022/06/19 04:51:21;;;;;;;5.05;0.85;;;16.50;60.90;;;;;;5094665;28;20036;-83
2022/06/19 04:53:48;;;;;;;3.58;0.40;;;16.60;60.70;;;;;;5076960;28;20078;-82
2022/06/19 04:56:18;;;;;;;4.03;0.47;;;16.60;60.60;;;;;;5073783;28;20716;-82
2022/06/19 04:58:46;;;;;;;4.47;0.60;;;16.60;60.40;;;;;;5090477;28;20044;-81
2022/06/19 05:01:28;;;;;;;6.28;0.55;;;16.60;60.30;;;;;;5093905;28;20483;-82
2022/06/19 05:03:58;;;;;;;2.90;0.40;;;16.70;60.20;;;;;;5093782;28;20044;-82
2022/06/19 05:06:26;;;;;;;4.38;0.47;;;16.70;60.10;;;;;;5077080;28;20040;-82
2022/06/19 05:08:54;;;;;;;2.95;0.70;;;16.80;60.00;;;;;;5093767;28;20063;-82
2022/06/19 05:11:22;;;;;;;4.47;0.43;;;16.80;59.90;;;;;;5073459;28;20033;-82
2022/06/19 05:13:50;;;;;;;3.88;0.30;;;16.90;59.80;;;;;;5090208;28;20055;-83
2022/06/19 05:16:20;;;;;;;1.92;0.30;;;17.00;59.70;;;;;;5093482;28;20139;-82
2022/06/19 05:18:48;;;;;;;3.58;0.40;;;17.00;59.60;;;;;;5093336;28;20470;-83
2022/06/19 05:21:22;;;;;;;2.47;0.30;;;17.10;59.50;;;;;;5093390;28;20462;-83
2022/06/19 05:23:50;;;;;;;3.97;0.40;;;17.10;59.40;;;;;;5076374;28;20126;-83
2022/06/19 05:26:24;;;;;;;5.40;0.40;;;17.20;59.30;;;;;;5073064;28;20033;-82
2022/06/19 05:28:53;;;;;;;3.40;0.40;;;17.30;59.20;;;;;;5085363;28;20093;-82
2022/06/19 05:31:20;;;;;;;1.90;0.28;;;17.40;59.10;;;;;;5076335;28;20109;-83
2022/06/19 05:33:48;;;;;;;3.55;0.40;;;17.50;59.00;;;;;;5093135;28;20507;-78
2022/06/19 05:36:15;;;;;;;3.80;0.30;;;17.50;58.80;;;;;;5093108;28;20552;-78
2022/06/19 05:38:42;;;;;;;2.67;0.30;;;17.60;58.70;;;;;;5059880;28;20048;-78
2022/06/19 05:41:10;;;;;;;2.75;0.20;;;17.70;58.50;;;;;;5093079;28;20134;-79
2022/06/19 05:43:37;;;;;;;3.22;0.30;;;17.80;58.20;;;;;;5072891;28;20048;-82
2022/06/19 05:46:15;;;;;;;2.15;0.30;;;18.00;58.10;;;;;;5056446;28;20040;-83
2022/06/19 05:48:42;;;;;;;1.88;0.20;;;18.10;57.70;;;;;;5060009;28;20435;-87
2022/06/19 05:51:13;;;;;;;2.30;0.30;;;18.10;57.50;;;;;;5076208;28;20492;-83
2022/06/19 05:53:43;;;;;;;2.15;0.50;;;18.20;57.10;;;;;;5092883;28;20060;-82
2022/06/19 05:56:11;;;;;;;3.53;0.30;;;18.30;56.90;;;;;;5094154;28;20056;-82
2022/06/19 05:58:39;;;;;;;2.40;0.20;;;18.40;56.70;;;;;;5078473;28;20135;-82
2022/06/19 06:01:06;;;;;;;3.78;0.30;;;18.60;56.50;;;;;;5075975;28;20109;-82
2022/06/19 06:03:34;;;;;;;2.08;0.30;;;18.70;56.30;;;;;;5074751;28;20047;-84
2022/06/19 06:06:19;;;;;;;1.73;0.25;;;18.90;56.10;;;;;;5076248;28;20109;-82
2022/06/19 06:08:47;;;;;;;2.92;0.30;;;19.10;55.80;;;;;;5092624;28;20044;-82
2022/06/19 06:11:15;;;;;;;1.85;0.20;;;19.20;55.60;;;;;;5092354;28;20040;-83
2022/06/19 06:13:42;;;;;;;1.70;0.43;;;19.20;55.20;;;;;;5075891;28;20050;-82
2022/06/19 06:16:14;;;;;;;2.45;0.17;;;19.20;55.20;;;;;;5075743;28;20470;-83
2022/06/19 06:18:41;;;;;;;1.35;0.10;;;19.30;55.00;;;;;;5092623;28;20052;-83
2022/06/19 06:21:11;;;;;;;3.15;0.40;;;19.30;55.40;;;;;;5055706;28;20040;-82
2022/06/19 06:23:39;;;;;;;1.48;0.28;;;19.40;54.20;;;;;;5088258;28;20429;-82
2022/06/19 06:26:15;;;;;;;3.03;0.20;;;19.40;53.80;;;;;;5092273;28;20036;-82
2022/06/19 06:28:44;;;;;;;2.05;0.20;;;19.50;53.60;;;;;;5058330;28;20045;-83
2022/06/19 06:31:13;;;;;;;2.33;0.20;;;19.40;53.50;;;;;;5088380;28;20032;-82
2022/06/19 06:33:41;;;;;;;2.10;0.10;;;19.40;53.50;;;;;;5080421;28;20079;-82
2022/06/19 06:36:09;;;;;;;0.55;0.10;;;19.30;53.30;;;;;;5075003;28;20044;-82
2022/06/19 06:38:37;;;;;;;1.58;0.22;;;19.20;53.30;;;;;;5062273;28;20549;-82
2022/06/19 06:41:05;;;;;;;1.73;0.32;;;19.10;53.10;;;;;;5091866;28;20040;-82
2022/06/19 06:43:35;;;;;;;2.58;0.38;;;19.00;53.00;;;;;;5092002;28;20372;-83
2022/06/19 06:46:12;;;;;;;2.42;0.28;;;19.00;52.40;;;;;;5091962;28;20036;-82
2022/06/19 06:48:40;;;;;;;1.27;0.30;;;18.80;52.20;;;;;;5088345;28;20044;-82
2022/06/19 06:51:17;;;;;;;3.75;0.22;;;18.70;52.10;;;;;;5085714;28;20128;-81
2022/06/19 06:53:45;;;;;;;1.10;0.20;;;18.60;52.20;;;;;;5092870;28;20150;-82
2022/06/19 06:56:12;;;;;;;1.73;0.10;;;18.60;52.40;;;;;;5092821;28;20040;-81
2022/06/19 06:58:39;;;;;;;1.77;0.22;;;18.60;52.40;;;;;;5058057;28;20090;-82
2022/06/19 07:01:15;;;;;;;1.40;0.20;;;18.50;52.70;;;;;;5074691;28;20656;-82
2022/06/19 07:03:49;;;;;;;3.72;0.40;;;18.50;52.90;;;;;;5091492;28;20040;-82
2022/06/19 07:06:16;;;;;;;3.53;0.30;;;18.40;53.30;;;;;;5091580;28;20119;-83
2022/06/19 07:08:43;;;;;;;4.72;0.40;;;18.20;53.90;;;;;;5091492;28;20048;-79
2022/06/19 07:11:34;;;;;;;3.55;0.35;;;17.90;54.50;;;;;;5091311;28;20101;-79
2022/06/19 07:14:01;;;;;;;4.15;0.40;;;17.50;56.00;;;;;;5091145;28;20064;-79
2022/06/19 07:16:28;;;;;;;1.88;0.30;;;17.00;57.10;;;;;;5091370;28;20048;-78
2022/06/19 07:18:55;;;;;;;1.30;0.30;;;16.90;57.70;;;;;;5058116;28;20571;-79
2022/06/19 07:21:22;;;;;;;1.90;0.30;;;16.70;58.00;;;;;;5058119;28;20388;-78
2022/06/19 07:23:49;;;;;;;3.22;0.35;;;16.70;58.60;;;;;;5091254;28;20040;-82
2022/06/19 07:26:18;;;;;;;1.33;0.40;;;16.70;59.00;;;;;;5091210;28;20037;-81
2022/06/19 07:28:46;;;;;;;6.68;0.45;;;16.60;60.50;;;;;;5074666;28;20075;-79
2022/06/19 07:31:20;;;;;;;1.65;0.30;;;16.60;60.80;;;;;;5092564;28;20039;-79
2022/06/19 07:33:47;;;;;;;3.80;0.50;;;16.40;61.70;;;;;;5091181;28;20036;-78
2022/06/19 07:36:17;;;;;;;3.95;0.32;;;16.20;62.90;;;;;;5091172;28;20115;-79
2022/06/19 07:38:45;;;;;;;6.65;0.63;;;16.00;63.80;;;;;;5082777;28;20048;-82
2022/06/19 07:41:12;;;;;;;3.08;0.40;;;15.90;64.30;;;;;;5052175;28;20165;-84
2022/06/19 07:43:40;;;;;;;3.33;0.57;;;15.80;64.60;;;;;;5091016;28;20094;-82
2022/06/19 07:46:07;;;;;;;3.53;0.30;;;15.80;65.30;;;;;;5057879;28;20046;-81
2022/06/19 07:51:19;;;;;;;4.13;0.47;;;15.70;66.70;;;;;;5085121;28;20400;-79
2022/06/19 07:53:46;;;;;;;1.95;0.35;;;15.80;66.60;;;;;;5070870;28;20076;-79
2022/06/19 07:56:13;;;;;;;2.80;0.30;;;15.80;66.60;;;;;;5054651;28;20044;-79
2022/06/19 07:58:40;;;;;;;3.45;0.50;;;15.80;67.20;;;;;;5073566;28;20075;-79
2022/06/19 08:01:07;;;;;;;3.33;0.30;;;15.80;67.70;;;;;;5070941;28;20044;-76
2022/06/19 08:03:34;;;;;;;2.60;0.40;;;15.70;68.40;;;;;;5077630;28;20060;-82
2022/06/19 08:06:02;;;;;;;5.43;0.50;;;15.70;68.60;;;;;;5091218;28;20044;-82
2022/06/19 08:08:32;;;;;;;2.97;0.70;;;15.60;69.10;;;;;;5090887;28;20067;-80
2022/06/19 08:11:00;;;;;;;4.38;0.50;;;15.60;69.40;;;;;;5057937;28;20461;-80
2022/06/19 08:13:30;;;;;;;3.17;0.45;;;15.60;69.50;;;;;;5071104;28;20040;-80
2022/06/19 08:16:07;;;;;;;2.85;0.30;;;15.60;70.30;;;;;;5070941;28;20071;-80
2022/06/19 08:18:35;;;;;;;4.78;0.70;;;15.50;70.60;;;;;;5068416;28;20048;-80
2022/06/19 08:21:02;;;;;;;1.95;0.30;;;15.50;71.40;;;;;;5090958;28;20448;-80
2022/06/19 08:23:30;;;;;;;5.22;0.40;;;15.50;71.70;;;;;;5091036;28;20043;-79
2022/06/19 08:25:58;;;;;;;5.57;0.63;;;15.40;71.90;;;;;;5091453;28;20071;-77
2022/06/19 08:28:46;;;;;;;3.53;1.02;;;15.40;72.50;;;;;;5095897;28;20032;-76
2022/06/19 08:31:13;;;;;;;2.17;0.30;;;15.30;72.70;;;;;;5094459;28;20484;-77
2022/06/19 08:33:40;;;;;;;4.32;0.38;;;15.30;73.50;;;;;;5074343;28;20123;-82
2022/06/19 08:36:11;;;;;;;4.18;0.32;;;15.30;73.00;;;;;;5061167;28;20464;-80
2022/06/19 08:38:43;;;;;;;2.63;0.38;;;15.40;73.20;;;;;;5077575;28;20040;-84
2022/06/19 08:41:23;;;;;;;4.95;0.50;;;15.40;73.30;;;;;;5095606;28;20035;-83
2022/06/19 08:44:26;;;;;;;3.10;0.40;;;15.60;73.10;;;;;;5094204;28;20044;-84
2022/06/19 08:47:02;;;;;;;2.97;0.30;;;15.80;72.90;;;;;;5094052;28;20072;-84
2022/06/19 08:50:05;;;;;;;5.07;0.55;;;15.80;72.80;;;;;;5073666;28;20044;-83
2022/06/19 08:52:40;;;;;;;5.67;0.40;;;15.80;72.90;;;;;;5049306;28;20545;-83
2022/06/19 08:55:13;;;;;;;2.85;0.40;;;15.70;73.10;;;;;;5086414;28;20519;-82
2022/06/19 08:57:49;;;;;;;3.47;0.40;;;15.70;73.30;;;;;;5077124;28;20466;-86
2022/06/19 09:00:30;;;;;;;6.43;0.90;;;15.70;73.30;;;;;;5094390;28;20087;-88
2022/06/19 09:03:15;;;;;;;2.83;0.40;;;15.70;73.20;;;;;;5094536;28;20039;-87
2022/06/19 09:06:01;;;;;;;2.72;0.40;;;15.80;73.20;;;;;;5074251;28;20462;-87
2022/06/19 09:08:56;;;;;;;2.17;0.25;;;15.80;72.90;;;;;;5089274;28;20044;-87
2022/06/19 09:11:43;;;;;;;2.40;0.30;;;15.80;72.90;;;;;;5077771;28;20044;-89
2022/06/19 09:14:35;;;;;;;3.83;0.52;;;15.90;72.90;;;;;;5072056;28;20105;-89
2022/06/19 09:17:16;;;;;;;4.10;0.65;;;16.00;73.10;;;;;;5089935;28;20492;-88
2022/06/19 09:19:52;;;;;;;2.72;0.40;;;16.00;73.00;;;;;;5094110;28;20048;-88
2022/06/19 09:22:31;;;;;;;5.03;0.50;;;16.20;73.00;;;;;;5077525;28;20384;-88
2022/06/19 09:25:17;;;;;;;2.92;0.30;;;16.30;72.80;;;;;;5094088;28;20463;-89
2022/06/19 09:27:54;;;;;;;4.53;0.40;;;16.50;72.80;;;;;;5094069;28;20553;-89
2022/06/19 09:30:31;;;;;;;5.18;0.55;;;16.70;72.30;;;;;;5094429;28;20158;-89
2022/06/19 09:33:05;;;;;;;3.85;0.38;;;17.10;71.90;;;;;;5077298;28;20169;-88
2022/06/19 09:35:44;;;;;;;4.55;0.40;;;17.20;71.60;;;;;;5077983;28;20055;-88
2022/06/19 09:38:34;;;;;;;3.58;0.50;;;17.10;71.60;;;;;;5076940;28;20116;-89
2022/06/19 09:41:05;;;;;;;5.07;0.40;;;17.20;71.70;;;;;;5076552;28;20132;-87
2022/06/19 09:43:41;;;;;;;5.85;0.52;;;17.20;71.70;;;;;;5087871;28;20410;-87
2022/06/19 09:46:15;;;;;;;3.85;0.40;;;17.20;71.40;;;;;;5056655;28;20041;-84
2022/06/19 09:49:02;;;;;;;1.52;0.45;;;17.30;71.00;;;;;;5080189;28;20040;-84
2022/06/19 09:51:41;;;;;;;3.83;0.40;;;17.30;70.70;;;;;;5075993;28;20134;-85
2022/06/19 09:54:50;;;;;;;2.95;0.47;;;17.40;70.60;;;;;;5093798;28;20044;-84
2022/06/19 09:57:31;;;;;;;3.25;0.30;;;17.70;70.20;;;;;;5058303;28;20063;-83
2022/06/19 10:00:17;;;;;;;3.03;0.50;;;18.20;69.60;;;;;;5074583;28;20075;-84
2022/06/19 10:03:36;;;;;;;1.73;0.20;;;18.60;68.40;;;;;;5092429;28;20044;-83
2022/06/19 10:06:09;;;;;;;1.92;0.25;;;18.80;67.80;;;;;;5081579;28;20036;-86
2022/06/19 10:08:54;;;;;;;4.35;0.28;;;19.10;67.70;;;;;;5104133;28;20044;-83
2022/06/19 10:11:30;;;;;;;1.65;0.35;;;19.50;66.70;;;;;;5092521;28;20040;-83
2022/06/19 10:14:09;;;;;;;1.50;0.30;;;19.60;66.40;;;;;;5076046;28;20044;-85
2022/06/19 10:16:45;;;;;;;0.50;0.13;;;19.80;66.00;;;;;;5079438;28;20100;-83
2022/06/19 10:19:24;;;;;;;1.92;0.28;;;20.00;65.40;;;;;;5093001;28;20597;-86
2022/06/19 10:22:15;;;;;;;0.95;0.15;;;20.10;64.90;;;;;;5074094;28;20044;-86
2022/06/19 10:24:56;;;;;;;1.48;0.20;;;20.20;64.50;;;;;;5084949;28;20110;-87
2022/06/19 10:27:38;;;;;;;2.03;0.20;;;20.30;64.00;;;;;;5092129;28;20036;-86
2022/06/19 10:30:14;;;;;;;0.88;0.15;;;20.30;63.60;;;;;;5068506;28;20150;-87
2022/06/19 10:33:11;;;;;;;1.45;0.30;;;20.20;63.50;;;;;;5072094;28;20045;-83
2022/06/19 10:36:02;;;;;;;1.90;0.40;;;20.30;63.20;;;;;;5091840;28;20435;-85
2022/06/19 10:39:02;;;;;;;0.95;0.10;;;20.20;62.80;;;;;;5092145;28;20044;-83
2022/06/19 10:44:41;;;;;;;3.95;0.40;;;20.30;62.90;;;;;;5093049;28;20187;-84
2022/06/19 10:47:29;;;;;;;0.77;0.30;;;20.40;62.60;;;;;;5090680;28;20180;-87
2022/06/19 10:50:17;;;;;;;2.17;0.25;;;20.60;62.40;;;;;;5085375;28;20110;-83
2022/06/19 10:53:10;;;;;;;2.35;0.40;;;20.60;61.80;;;;;;5100263;28;20047;-83
2022/06/19 10:56:10;;;;;;;2.95;0.30;;;20.50;61.70;;;;;;5075962;28;20044;-86
2022/06/19 10:58:40;;;;;;;5.43;0.38;;;20.50;61.40;;;;;;5088217;28;20101;-82
2022/06/19 11:04:06;;;;;;;2.42;0.30;;;20.50;61.50;;;;;;5081998;28;20117;-79
2022/06/19 11:04:12;;;;;;;1.42;0.35;;;20.60;61.20;;;;;;5087199;28;20036;-80
2022/06/19 11:06:53;;;;;;;2.13;0.35;;;20.50;61.20;;;;;;5091453;28;20416;-82
2022/06/19 11:09:26;;;;;;;1.40;0.40;;;20.60;61.20;;;;;;5071502;28;20400;-83
2022/06/19 11:11:56;;;;;;;2.75;0.60;;;20.60;61.20;;;;;;5086961;28;20040;-82
2022/06/19 11:14:28;;;;;;;3.70;0.40;;;20.70;61.40;;;;;;5091315;28;20047;-82
2022/06/19 11:17:01;;;;;;;2.13;0.30;;;20.80;61.20;;;;;;5074791;28;20036;-81
2022/06/19 11:19:55;;;;;;;2.45;0.30;;;21.10;61.10;;;;;;5091690;28;20040;-80
2022/06/19 11:22:25;;;;;;;1.45;0.32;;;21.30;60.70;;;;;;5072845;28;20048;-81
2022/06/19 11:24:55;;;;;;;4.15;0.47;;;21.40;60.60;;;;;;5091210;28;20059;-81
2022/06/19 11:27:26;;;;;;;2.38;0.50;;;21.30;60.20;;;;;;5075158;28;20044;-81
2022/06/19 11:29:57;;;;;;;3.33;0.60;;;21.20;60.50;;;;;;5091235;28;20040;-83
2022/06/19 11:32:28;;;;;;;2.60;0.43;;;21.40;60.40;;;;;;5092638;28;20038;-82
2022/06/19 11:35:05;;;;;;;2.65;0.45;;;21.50;60.20;;;;;;5091111;28;20040;-81
2022/06/19 11:37:44;;;;;;;5.20;0.65;;;21.50;60.20;;;;;;5082264;28;20051;-79
2022/06/19 11:40:28;;;;;;;4.00;0.60;;;21.70;59.80;;;;;;5085175;28;20087;-78
2022/06/19 11:42:59;;;;;;;1.30;0.40;;;21.70;59.80;;;;;;5069002;28;20054;-83
2022/06/19 11:45:35;;;;;;;3.80;0.60;;;21.70;59.90;;;;;;5074872;28;20044;-83
2022/06/19 11:48:12;;;;;;;4.63;0.60;;;21.50;60.10;;;;;;5074193;28;20046;-83
2022/06/19 11:50:46;;;;;;;5.18;0.70;;;21.30;60.50;;;;;;5091200;28;20127;-82
2022/06/19 11:53:27;;;;;;;3.80;0.57;;;21.50;60.50;;;;;;5090980;28;20070;-81
2022/06/19 11:56:22;;;;;;;2.53;0.43;;;21.70;60.00;;;;;;5090889;28;20044;-81
2022/06/19 11:58:56;;;;;;;1.77;0.45;;;21.90;59.30;;;;;;5090917;28;20084;-81
2022/06/19 12:01:38;;;;;;;5.20;0.70;;;21.90;59.30;;;;;;5092291;28;20052;-82
2022/06/19 12:04:20;;;;;;;3.13;0.45;;;22.40;58.80;;;;;;5065200;28;20039;-81
2022/06/19 12:06:55;;;;;;;3.42;0.60;;;22.60;58.30;;;;;;5078087;28;20094;-81
2022/06/19 12:09:30;;;;;;;1.75;0.40;;;22.90;58.00;;;;;;5094851;28;20052;-82
2022/06/19 12:12:00;;;;;;;4.10;0.40;;;22.90;58.00;;;;;;5095298;28;20044;-82
2022/06/19 12:14:55;;;;;;;3.50;0.57;;;22.60;58.20;;;;;;5094576;28;20097;-76
2022/06/19 12:17:31;;;;;;;2.88;0.38;;;22.50;58.20;;;;;;5095430;28;20040;-78
2022/06/19 12:19:59;;;;;;;3.35;0.50;;;22.70;58.20;;;;;;5094806;28;20110;-81
2022/06/19 12:22:50;;;;;;;4.07;0.68;;;22.90;57.60;;;;;;5094563;28;20059;-79
2022/06/19 12:25:26;;;;;;;2.45;0.40;;;22.30;57.80;;;;;;5084776;28;20045;-78
2022/06/19 12:28:18;;;;;;;1.83;0.40;;;21.70;58.90;;;;;;5077223;28;20052;-76
2022/06/19 12:31:02;;;;;;;2.63;0.50;;;21.40;59.70;;;;;;5094290;28;20052;-82
2022/06/19 12:33:54;;;;;;;3.17;0.50;;;21.10;60.40;;;;;;5062269;28;20049;-83
2022/06/19 12:36:26;;;;;;;1.98;0.50;;;20.80;60.90;;;;;;5077636;28;20400;-83
2022/06/19 12:38:53;;;;;;;;;;;20.50;61.60;;;;;;5094724;28;20177;-81
2022/06/19 12:41:36;;;;;;;3.47;0.52;;;20.10;62.20;;;;;;5094630;28;19927;-80
2022/06/19 12:44:28;;;;;;;3.00;0.73;;;19.90;62.70;;;;;;5094300;28;20101;-80
2022/06/19 12:47:23;;;;;;;3.33;0.65;;;19.70;63.80;;;;;;5094461;28;20043;-82
2022/06/19 12:50:17;;;;;;;2.80;0.70;;;19.50;63.50;;;;;;5094008;28;20462;-82
2022/06/19 12:53:12;;;;;;;1.30;0.40;;;19.40;63.70;;;;;;5094454;28;20044;-82
2022/06/19 12:56:08;;;;;;;3.03;0.70;;;19.60;63.50;;;;;;5094288;28;20079;-88
2022/06/19 12:58:45;;;;;;;2.88;0.50;;;20.20;62.60;;;;;;5094277;28;20142;-81
2022/06/19 13:01:28;;;;;;;3.25;0.55;;;20.70;61.80;;;;;;5094053;28;20082;-82
2022/06/19 13:04:16;;;;;;;2.40;0.50;;;20.80;61.50;;;;;;5094095;28;20491;-86
2022/06/19 13:07:08;;;;;;;1.40;0.50;;;21.00;61.30;;;;;;5094001;28;20056;-85
2022/06/19 13:09:54;;;;;;;2.08;0.40;;;20.80;61.40;;;;;;5077182;28;20044;-85
2022/06/19 13:12:39;;;;;;;4.65;0.40;;;20.80;61.50;;;;;;5093749;28;20085;-84
2022/06/19 13:15:26;;;;;;;1.52;0.50;;;20.80;61.40;;;;;;5094340;28;20151;-87
2022/06/19 13:18:09;;;;;;;3.65;0.50;;;20.70;62.20;;;;;;5073874;28;20047;-84
2022/06/19 13:20:53;;;;;;;3.38;0.60;;;20.50;61.90;;;;;;5093860;28;20044;-85
2022/06/19 13:23:39;;;;;;;2.80;0.57;;;20.40;62.20;;;;;;5093587;28;20059;-82
2022/06/19 13:29:34;;;;;;;0.90;0.20;;;20.20;62.40;;;;;;5094834;28;20070;-88
2022/06/19 13:32:17;;;;;;;1.67;0.40;;;20.10;62.70;;;;;;5093454;28;20051;-87
2022/06/19 13:34:54;;;;;;;2.45;0.30;;;20.00;63.00;;;;;;5076539;28;20071;-81
2022/06/19 13:37:52;;;;;;;1.60;0.40;;;20.00;63.00;;;;;;5076417;28;20442;-78